Time;durP1;ratioP1;P1;durP2;ratioP2;P2;SDS_P1;SDS_P2;PMS_P1;PMS_P2;Temp;Humidity;BMP_temperature;BMP_pressure;BME280_temperature;BME280_humidity;BME280_pressure;Samples;Min_cycle;Max_cycle;Signal;HPM_P1;HPM_P2
2024/02/09 00:00:07;;;;;;;19.40;16.20;;;;;;;2.98;100.00;97114.70;109439;1252;66986;-75
2024/02/09 00:02:35;;;;;;;19.90;17.20;;;;;;;2.99;100.00;97111.50;109173;1252;60033;-76
2024/02/09 00:05:02;;;;;;;21.40;18.20;;;;;;;3.00;100.00;97111.75;109465;1252;63744;-76
2024/02/09 00:07:29;;;;;;;19.70;17.60;;;;;;;3.01;100.00;97116.95;109431;1252;59387;-76
2024/02/09 00:09:56;;;;;;;19.20;17.20;;;;;;;3.02;100.00;97124.27;109429;1252;59093;-74
2024/02/09 00:12:24;;;;;;;20.90;17.60;;;;;;;3.01;100.00;97126.98;109436;1252;67011;-76
2024/02/09 00:14:51;;;;;;;18.90;16.40;;;;;;;3.00;100.00;97132.48;109140;1252;60198;-76
2024/02/09 00:17:17;;;;;;;19.30;17.10;;;;;;;3.01;100.00;97126.27;108643;1252;1002421;-76
2024/02/09 00:19:46;;;;;;;18.10;15.50;;;;;;;3.02;100.00;97116.55;109405;1254;59064;-75
2024/02/09 00:22:13;;;;;;;21.70;18.90;;;;;;;3.04;100.00;97116.06;108684;1252;1002522;-76
2024/02/09 00:24:42;;;;;;;27.80;23.10;;;;;;;3.05;100.00;97117.23;109447;1253;67005;-76
2024/02/09 00:27:09;;;;;;;27.50;22.50;;;;;;;3.05;100.00;97116.67;109443;1252;60892;-76
2024/02/09 00:29:36;;;;;;;29.20;22.30;;;;;;;3.05;100.00;97114.43;109430;1252;63950;-76
2024/02/09 00:32:04;;;;;;;27.70;21.90;;;;;;;3.02;100.00;97118.29;109439;1252;59869;-76
2024/02/09 00:34:35;;;;;;;25.00;20.80;;;;;;;3.00;100.00;97114.21;109157;1260;59001;-77
2024/02/09 00:37:01;;;;;;;21.50;19.20;;;;;;;2.98;100.00;97113.31;109452;1252;66995;-76
2024/02/09 00:39:33;;;;;;;25.00;21.00;;;;;;;2.95;100.00;97120.16;109445;1252;59934;-76
2024/02/09 00:42:02;;;;;;;22.80;20.20;;;;;;;2.95;100.00;97118.60;109457;1252;63608;-76
2024/02/09 00:44:28;;;;;;;20.80;17.80;;;;;;;2.95;100.00;97114.36;109430;1252;58947;-75
2024/02/09 00:46:55;;;;;;;21.90;18.30;;;;;;;2.96;100.00;97115.17;109476;1252;58868;-75
2024/02/09 00:49:22;;;;;;;21.00;18.70;;;;;;;2.98;100.00;97118.73;109486;1252;65945;-76
2024/02/09 00:51:52;;;;;;;21.80;19.30;;;;;;;3.00;100.00;97119.70;109473;1252;60169;-75
2024/02/09 00:54:21;;;;;;;20.00;17.90;;;;;;;3.01;100.00;97119.93;109398;1252;65252;-77
2024/02/09 00:56:48;;;;;;;19.60;17.50;;;;;;;3.03;100.00;97115.22;109450;1252;59051;-77
2024/02/09 00:59:18;;;;;;;21.10;18.20;;;;;;;3.06;100.00;97116.61;109480;1252;59123;-77
2024/02/09 01:01:45;;;;;;;;;;;;;;;3.09;100.00;97118.75;109433;1252;64779;-77
2024/02/09 01:04:13;;;;;;;23.20;18.90;;;;;;;3.08;100.00;97119.10;109415;1252;60164;-77
2024/02/09 01:06:40;;;;;;;23.80;20.20;;;;;;;3.09;100.00;97119.41;109429;1252;65193;-76
2024/02/09 01:09:09;;;;;;;29.20;24.30;;;;;;;3.11;100.00;97117.52;109450;1252;59038;-75
2024/02/09 01:11:38;;;;;;;31.00;25.30;;;;;;;3.11;100.00;97111.55;109464;1253;58995;-75
2024/02/09 02:44:57;;;;;;;31.70;26.30;;;;;;;3.23;100.00;97055.67;109459;1254;58964;-76
2024/02/09 02:47:23;;;;;;;35.60;28.70;;;;;;;3.23;100.00;97056.73;109441;1252;59262;-76
2024/02/09 03:06:22;;;;;;;35.10;27.60;;;;;;;3.25;100.00;97059.38;109417;1254;60127;-76
2024/02/09 03:08:49;;;;;;;31.90;26.10;;;;;;;3.25;100.00;97054.67;109443;1254;65076;-76
2024/02/09 03:11:16;;;;;;;32.00;26.30;;;;;;;3.26;100.00;97056.70;109439;1255;59032;-76
2024/02/09 03:13:44;;;;;;;34.70;25.90;;;;;;;3.26;100.00;97054.73;109458;1253;59021;-76
2024/02/09 03:16:15;;;;;;;33.60;27.20;;;;;;;3.27;100.00;97053.27;109431;1253;67165;-76
2024/02/09 03:18:44;;;;;;;35.30;25.90;;;;;;;3.27;100.00;97053.59;109136;1253;62139;-76
2024/02/09 03:21:19;;;;;;;32.10;27.00;;;;;;;3.28;100.00;97058.80;109425;1257;65103;-76
2024/02/09 03:23:47;;;;;;;36.30;27.70;;;;;;;3.29;100.00;97056.81;109360;1252;58949;-76
2024/02/09 03:26:14;;;;;;;34.60;26.20;;;;;;;3.30;100.00;97053.95;109427;1253;59032;-76
2024/02/09 03:28:43;;;;;;;32.90;25.90;;;;;;;3.29;100.00;97049.42;109465;1253;65877;-76
2024/02/09 03:31:09;;;;;;;35.30;26.40;;;;;;;3.28;100.00;97048.14;109429;1253;61168;-77
2024/02/09 03:33:40;;;;;;;35.90;26.20;;;;;;;3.26;100.00;97051.73;109420;1253;63955;-77
2024/02/09 03:36:07;;;;;;;36.70;28.50;;;;;;;3.26;100.00;97055.11;109387;1254;59093;-76
2024/02/09 03:38:35;;;;;;;36.90;27.50;;;;;;;3.27;100.00;97057.48;109457;1253;58909;-77
2024/02/09 03:41:02;;;;;;;39.10;29.40;;;;;;;3.26;100.00;97056.66;109474;1254;67032;-77
2024/02/09 03:43:28;;;;;;;39.00;28.80;;;;;;;3.24;100.00;97053.09;109429;1253;60136;-77
2024/02/09 03:45:55;;;;;;;37.70;29.00;;;;;;;3.24;100.00;97050.86;109406;1253;65099;-76
2024/02/09 03:48:23;;;;;;;41.80;30.80;;;;;;;3.25;100.00;97050.63;109432;1254;59039;-76
2024/02/09 03:50:50;;;;;;;38.20;28.80;;;;;;;3.25;100.00;97051.45;109200;1253;59346;-76
2024/02/09 03:53:16;;;;;;;38.80;28.60;;;;;;;3.27;100.00;97054.85;109436;1254;66989;-76
2024/02/09 03:55:43;;;;;;;42.70;31.20;;;;;;;3.28;100.00;97055.31;109420;1255;60002;-77
2024/02/09 03:58:10;;;;;;;39.50;30.50;;;;;;;3.28;100.00;97055.32;109424;1253;64887;-76
2024/02/09 04:00:36;;;;;;;38.70;29.60;;;;;;;3.27;100.00;97057.65;109424;1253;59425;-76
2024/02/09 04:03:03;;;;;;;46.80;35.70;;;;;;;3.25;100.00;97057.95;109430;1255;58961;-75
2024/02/09 04:05:31;;;;;;;42.10;32.10;;;;;;;3.24;100.00;97056.96;109447;1253;65879;-76
2024/02/09 04:07:57;;;;;;;40.70;30.50;;;;;;;3.25;100.00;97051.65;109433;1253;61457;-76
2024/02/09 04:10:24;;;;;;;38.80;30.30;;;;;;;3.25;100.00;97046.77;109382;1252;65086;-75
2024/02/09 04:12:50;;;;;;;39.60;30.60;;;;;;;3.25;100.00;97047.44;109203;1254;59005;-76
2024/02/09 04:15:17;;;;;;;39.80;30.20;;;;;;;3.27;100.00;97045.91;109378;1254;58960;-76
2024/02/09 04:17:44;;;;;;;37.10;29.40;;;;;;;3.27;100.00;97042.41;109442;1253;67000;-76
2024/02/09 04:20:11;;;;;;;41.40;29.40;;;;;;;3.26;100.00;97037.56;109423;1254;60164;-76
2024/02/09 04:22:37;;;;;;;37.80;29.30;;;;;;;3.24;100.00;97035.02;109390;1254;65033;-76
2024/02/09 04:25:04;;;;;;;36.10;27.80;;;;;;;3.22;100.00;97033.45;109377;1256;58963;-76
2024/02/09 04:27:31;;;;;;;38.00;29.80;;;;;;;3.20;100.00;97030.23;109462;1252;59052;-76
2024/02/09 04:29:57;;;;;;;35.20;28.10;;;;;;;3.20;100.00;97030.59;109389;1254;67313;-76
2024/02/09 04:32:24;;;;;;;36.20;28.40;;;;;;;3.21;100.00;97030.16;109430;1254;61080;-77
2024/02/09 04:34:51;;;;;;;33.70;26.60;;;;;;;3.21;100.00;97030.70;109424;1254;63963;-77
2024/02/09 04:37:21;;;;;;;36.30;27.00;;;;;;;3.20;100.00;97034.48;109119;1253;59008;-76
2024/02/09 04:39:48;;;;;;;37.20;28.00;;;;;;;3.21;100.00;97039.14;109430;1254;58947;-76
2024/02/09 04:42:14;;;;;;;35.70;28.70;;;;;;;3.20;100.00;97035.33;109400;1253;67036;-76
2024/02/09 04:44:42;;;;;;;40.20;31.50;;;;;;;3.19;100.00;97038.54;109389;1253;61232;-76
2024/02/09 04:47:09;;;;;;;38.90;31.50;;;;;;;3.20;100.00;97030.43;109412;1253;64040;-77
2024/02/09 04:49:35;;;;;;;38.30;30.20;;;;;;;3.18;100.00;97020.90;109423;1253;59301;-76
2024/02/09 04:52:02;;;;;;;38.50;28.50;;;;;;;3.16;100.00;97020.89;109419;1254;58882;-77
2024/02/09 04:54:29;;;;;;;35.20;28.30;;;;;;;3.16;100.00;97018.41;109404;1253;67222;-76
2024/02/09 04:56:56;;;;;;;41.10;29.40;;;;;;;3.14;100.00;97018.55;109405;1253;60095;-77
2024/02/09 04:59:26;;;;;;;37.20;29.10;;;;;;;3.13;100.00;97014.75;109435;1253;64050;-77
2024/02/09 05:01:53;;;;;;;40.00;27.80;;;;;;;3.12;100.00;97017.45;109419;1253;58949;-77
2024/02/09 05:04:19;;;;;;;38.70;31.20;;;;;;;3.10;100.00;97012.17;109397;1254;58991;-77
2024/02/09 05:06:46;;;;;;;39.30;29.90;;;;;;;3.10;100.00;97010.39;109359;1253;66998;-77
2024/02/09 05:09:12;;;;;;;35.90;27.90;;;;;;;3.10;100.00;97011.63;109426;1254;61040;-77
2024/02/09 05:11:39;;;;;;;39.10;29.10;;;;;;;3.10;100.00;97013.21;109137;1254;64743;-77
2024/02/09 05:14:07;;;;;;;35.00;26.40;;;;;;;3.11;100.00;97018.25;109255;1253;59048;-77
2024/02/09 05:16:38;;;;;;;36.50;27.40;;;;;;;3.12;100.00;97021.70;109403;1254;59277;-77
2024/02/09 05:19:10;;;;;;;39.70;29.70;;;;;;;3.13;100.00;97017.08;109448;1254;67061;-76
2024/02/09 05:21:36;;;;;;;37.20;26.70;;;;;;;3.12;100.00;97016.10;109385;1253;60324;-77
2024/02/09 05:24:03;;;;;;;39.50;28.00;;;;;;;3.12;100.00;97019.20;109391;1253;65060;-78
2024/02/09 05:26:30;;;;;;;39.10;28.70;;;;;;;3.13;100.00;97027.60;109381;1252;59010;-77
2024/02/09 05:28:57;;;;;;;40.90;31.20;;;;;;;3.13;100.00;97024.56;109466;1253;59264;-76
2024/02/09 05:31:25;;;;;;;45.20;33.70;;;;;;;3.14;100.00;97018.17;109397;1253;75000;-77
2024/02/09 05:33:52;;;;;;;41.90;34.00;;;;;;;3.15;100.00;97019.05;109388;1253;61208;-77
2024/02/09 05:36:23;;;;;;;38.70;29.70;;;;;;;3.14;100.00;97015.90;109392;1252;65020;-77
2024/02/09 05:38:52;;;;;;;37.30;28.90;;;;;;;3.13;100.00;97021.06;109350;1254;59010;-76
2024/02/09 05:41:23;;;;;;;38.60;29.70;;;;;;;3.13;100.00;97020.17;109389;1254;59071;-77
2024/02/09 05:43:57;;;;;;;38.30;27.70;;;;;;;3.13;100.00;97015.81;109383;1254;66968;-77
2024/02/09 05:46:27;;;;;;;35.60;28.20;;;;;;;3.11;100.00;97005.94;109380;1253;60912;-77
2024/02/09 05:48:55;;;;;;;33.20;26.80;;;;;;;3.12;100.00;97010.96;109403;1253;65363;-76
2024/02/09 05:51:22;;;;;;;34.30;25.80;;;;;;;3.13;100.00;97006.70;109379;1253;59171;-77
2024/02/09 05:53:49;;;;;;;34.00;26.10;;;;;;;3.13;100.00;97007.38;109404;1253;59025;-77
2024/02/09 05:56:21;;;;;;;38.00;28.00;;;;;;;3.12;100.00;97007.95;109371;1254;67015;-78
2024/02/09 05:58:55;;;;;;;35.60;27.50;;;;;;;3.13;100.00;97008.65;109419;1254;60995;-77
2024/02/09 06:01:22;;;;;;;33.70;26.10;;;;;;;3.14;100.00;97004.19;109321;1253;64921;-77
2024/02/09 06:03:49;;;;;;;34.10;25.90;;;;;;;3.14;100.00;97002.60;109198;1253;60130;-77
2024/02/09 06:06:20;;;;;;;32.10;27.40;;;;;;;3.15;100.00;97003.44;109393;1254;58895;-77
2024/02/09 06:08:47;;;;;;;38.90;29.70;;;;;;;3.16;100.00;97006.99;109410;1253;65940;-78
2024/02/09 06:11:17;;;;;;;38.10;30.70;;;;;;;3.18;100.00;97017.23;109365;1253;60297;-78
2024/02/09 06:13:45;;;;;;;40.70;29.00;;;;;;;3.18;100.00;97018.44;109376;1253;65093;-78
2024/02/09 06:16:15;;;;;;;36.60;29.80;;;;;;;3.18;100.00;97022.15;109120;1254;59104;-78
2024/02/09 06:18:45;;;;;;;46.00;34.90;;;;;;;3.18;100.00;97023.17;109309;1252;59026;-78
2024/02/09 06:21:16;;;;;;;39.70;31.70;;;;;;;3.19;100.00;97027.13;109368;1253;66954;-78
2024/02/09 06:23:45;;;;;;;39.20;31.90;;;;;;;3.21;100.00;97024.77;109407;1253;60122;-78
2024/02/09 06:26:16;;;;;;;37.60;30.20;;;;;;;3.22;100.00;97030.14;109412;1253;65072;-78
2024/02/09 06:28:47;;;;;;;36.80;30.00;;;;;;;3.24;100.00;97030.16;109388;1253;59339;-78
2024/02/09 06:31:21;;;;;;;40.30;31.50;;;;;;;3.27;100.00;97035.73;109420;1253;59159;-78
2024/02/09 06:33:50;;;;;;;44.50;34.00;;;;;;;3.30;100.00;97026.55;109395;1253;67194;-78
2024/02/09 06:36:18;;;;;;;43.00;32.90;;;;;;;3.32;100.00;97033.95;109402;1254;60075;-77
2024/02/09 06:38:44;;;;;;;44.50;34.80;;;;;;;3.33;100.00;97043.05;109078;1253;64192;-76
2024/02/09 06:41:11;;;;;;;39.50;29.80;;;;;;;3.32;100.00;97037.15;109381;1253;59316;-76
2024/02/09 06:43:38;;;;;;;38.80;31.80;;;;;;;3.34;100.00;97040.85;109379;1252;58988;-77
2024/02/09 06:46:05;;;;;;;39.00;32.00;;;;;;;3.37;100.00;97043.47;109313;1254;67054;-77
2024/02/09 06:48:32;;;;;;;43.60;32.80;;;;;;;3.40;100.00;97034.70;109157;1257;61065;-77
2024/02/09 06:50:59;;;;;;;38.40;31.30;;;;;;;3.41;100.00;97035.62;109368;1253;65174;-77
2024/02/09 06:53:26;;;;;;;43.40;35.10;;;;;;;3.42;100.00;97041.69;109400;1252;59044;-78
2024/02/09 06:55:53;;;;;;;42.30;33.80;;;;;;;3.45;100.00;97043.05;109387;1254;58860;-78
2024/02/09 06:58:23;;;;;;;45.50;35.90;;;;;;;3.50;100.00;97042.01;109256;1254;66964;-77
2024/02/09 07:00:53;;;;;;;43.40;33.40;;;;;;;3.58;100.00;97041.48;109272;1253;60746;-76
2024/02/09 07:03:22;;;;;;;;;;;;;;;3.64;100.00;97043.30;109405;1252;63746;-77
2024/02/09 07:05:51;;;;;;;43.80;33.60;;;;;;;3.71;100.00;97037.39;109396;1253;58935;-77
2024/02/09 07:08:26;;;;;;;40.90;30.70;;;;;;;3.77;100.00;97036.83;109146;1252;59413;-77
2024/02/09 07:10:53;;;;;;;43.30;31.70;;;;;;;3.84;100.00;97034.58;109304;1252;64915;-77
2024/02/09 07:13:19;;;;;;;43.20;33.00;;;;;;;3.90;100.00;97035.90;109416;1252;61063;-76
2024/02/09 07:15:46;;;;;;;43.50;32.90;;;;;;;3.95;100.00;97036.20;109351;1253;63815;-77
2024/02/09 07:18:13;;;;;;;44.50;33.80;;;;;;;4.00;100.00;97039.00;109401;1252;59105;-77
2024/02/09 07:20:40;;;;;;;45.90;33.80;;;;;;;4.06;100.00;97040.18;109394;1252;58989;-77
2024/02/09 07:23:07;;;;;;;46.80;35.80;;;;;;;4.13;100.00;97036.88;109098;1253;67258;-77
2024/02/09 07:25:34;;;;;;;45.30;34.00;;;;;;;4.18;100.00;97040.73;109426;1252;61523;-78
2024/02/09 07:28:01;;;;;;;51.90;37.50;;;;;;;4.22;100.00;97045.15;109376;1252;64058;-77
2024/02/09 07:30:27;;;;;;;45.10;32.90;;;;;;;4.25;100.00;97047.73;109399;1253;59309;-78
2024/02/09 07:32:54;;;;;;;40.30;32.30;;;;;;;4.31;100.00;97051.20;109411;1253;59294;-77
2024/02/09 07:35:21;;;;;;;41.10;32.20;;;;;;;4.36;100.00;97049.79;109406;1252;64898;-77
2024/02/09 07:37:47;;;;;;;39.80;32.00;;;;;;;4.42;100.00;97052.15;109390;1253;60121;-78
2024/02/09 07:40:17;;;;;;;45.10;35.80;;;;;;;4.49;100.00;97051.86;109441;1252;65028;-77
2024/02/09 07:42:43;;;;;;;43.70;34.80;;;;;;;4.53;100.00;97056.81;109368;1253;59367;-78
2024/02/09 07:45:15;;;;;;;44.20;33.40;;;;;;;4.58;100.00;97060.44;109408;1252;59007;-78
2024/02/09 07:47:46;;;;;;;50.10;38.90;;;;;;;4.66;100.00;97062.73;109402;1253;66981;-76
2024/02/09 07:50:13;;;;;;;59.20;46.00;;;;;;;4.74;100.00;97062.47;109386;1252;69203;-77
2024/02/09 07:52:40;;;;;;;49.10;42.10;;;;;;;4.83;100.00;97064.60;109391;1252;65065;-77
2024/02/09 07:55:07;;;;;;;50.30;41.50;;;;;;;4.94;100.00;97065.15;109365;1252;59019;-77
2024/02/09 07:57:34;;;;;;;42.60;35.80;;;;;;;5.07;100.00;97064.04;109371;1252;59022;-77
2024/02/09 08:00:08;;;;;;;50.60;42.90;;;;;;;5.21;100.00;97064.23;109380;1253;67113;-77
2024/02/09 08:02:34;;;;;;;45.70;39.30;;;;;;;5.32;100.00;97063.40;109364;1252;60015;-77
2024/02/09 08:05:06;;;;;;;46.30;40.80;;;;;;;5.41;100.00;97057.02;109369;1252;63923;-76
2024/02/09 08:07:36;;;;;;;45.40;38.10;;;;;;;5.51;100.00;97055.54;109393;1252;59099;-77
2024/02/09 08:10:03;;;;;;;46.80;41.70;;;;;;;5.61;100.00;97059.67;109427;1252;59017;-76
2024/02/09 08:12:31;;;;;;;39.20;32.60;;;;;;;5.68;100.00;97061.80;109258;1252;65838;-78
2024/02/09 08:14:58;;;;;;;38.00;33.20;;;;;;;5.68;100.00;97063.52;109397;1253;60237;-76
2024/02/09 08:17:25;;;;;;;42.20;35.40;;;;;;;5.69;100.00;97066.98;109386;1252;64234;-77
2024/02/09 08:19:52;;;;;;;45.90;39.50;;;;;;;5.74;100.00;97064.20;109421;1252;59160;-77
2024/02/09 08:22:22;;;;;;;45.00;38.00;;;;;;;5.79;100.00;97065.89;109367;1252;58946;-77
2024/02/09 08:24:49;;;;;;;39.40;32.30;;;;;;;5.82;100.00;97065.50;109398;1252;66874;-77
2024/02/09 08:27:15;;;;;;;42.40;33.70;;;;;;;5.83;100.00;97062.24;109391;1253;61072;-77
2024/02/09 08:29:42;;;;;;;46.00;37.30;;;;;;;5.83;100.00;97065.91;109349;1252;65145;-77
2024/02/09 08:32:09;;;;;;;40.90;34.50;;;;;;;5.85;100.00;97061.20;109393;1252;59068;-77
2024/02/09 08:34:35;;;;;;;42.40;33.30;;;;;;;5.83;100.00;97062.23;109384;1252;59050;-76
2024/02/09 08:37:03;;;;;;;47.90;38.50;;;;;;;5.84;100.00;97059.47;109375;1252;67035;-76
2024/02/09 08:39:30;;;;;;;47.50;36.00;;;;;;;5.89;100.00;97059.96;109433;1252;60377;-76
2024/02/09 08:41:57;;;;;;;45.90;38.50;;;;;;;5.93;100.00;97052.13;109397;1252;64199;-77
2024/02/09 08:44:23;;;;;;;58.60;44.80;;;;;;;5.96;100.00;97051.69;109383;1253;59084;-76
2024/02/09 08:46:50;;;;;;;62.10;49.80;;;;;;;5.98;100.00;97052.46;109390;1252;59063;-76
2024/02/09 08:49:17;;;;;;;80.70;64.40;;;;;;;5.98;100.00;97050.33;109366;1252;66977;-77
2024/02/09 08:51:44;;;;;;;68.40;57.40;;;;;;;6.02;100.00;97052.52;109418;1252;61523;-76
2024/02/09 08:54:11;;;;;;;57.50;50.00;;;;;;;6.05;100.00;97051.19;109375;1252;63997;-74
2024/02/09 08:56:37;;;;;;;46.30;37.60;;;;;;;6.12;100.00;97049.55;109356;1252;59055;-76
2024/02/09 08:59:06;;;;;;;42.80;35.10;;;;;;;6.19;100.00;97048.97;109390;1252;59036;-76
2024/02/09 09:01:34;;;;;;;45.30;35.30;;;;;;;6.24;100.00;97044.58;109366;1253;66020;-77
2024/02/09 09:04:02;;;;;;;46.00;41.00;;;;;;;6.28;100.00;97045.11;109398;1252;59946;-77
2024/02/09 09:06:29;;;;;;;49.40;42.20;;;;;;;6.34;100.00;97043.20;109369;1252;65094;-76
2024/02/09 09:08:56;;;;;;;49.20;43.80;;;;;;;6.37;100.00;97038.88;109367;1252;59107;-77
2024/02/09 09:11:22;;;;;;;47.20;41.20;;;;;;;6.41;100.00;97039.84;109388;1253;59022;-76
2024/02/09 09:13:49;;;;;;;40.40;35.80;;;;;;;6.43;100.00;97041.59;109406;1252;67344;-77
2024/02/09 09:16:18;;;;;;;46.40;41.40;;;;;;;6.46;100.00;97036.91;109407;1252;61363;-77
2024/02/09 09:18:45;;;;;;;41.90;36.10;;;;;;;6.53;100.00;97031.26;109368;1252;64798;-77
2024/02/09 09:21:12;;;;;;;48.20;40.70;;;;;;;6.58;100.00;97035.03;109351;1251;59027;-77
2024/02/09 09:23:40;;;;;;;41.60;37.00;;;;;;;6.60;100.00;97034.70;109387;1253;58893;-77
2024/02/09 09:26:06;;;;;;;44.30;38.80;;;;;;;6.60;100.00;97034.71;109380;1253;67346;-77
2024/02/09 09:28:34;;;;;;;41.90;37.10;;;;;;;6.60;100.00;97035.61;109095;1252;59918;-76
2024/02/09 09:31:01;;;;;;;46.50;39.40;;;;;;;6.62;100.00;97035.27;109359;1252;65475;-77
2024/02/09 09:33:27;;;;;;;44.40;37.40;;;;;;;6.71;100.00;97031.21;109370;1252;58961;-78
2024/02/09 09:35:55;;;;;;;40.40;33.90;;;;;;;6.80;100.00;97028.66;109420;1252;59224;-76
2024/02/09 09:38:22;;;;;;;39.40;30.90;;;;;;;6.85;100.00;97032.16;109119;1252;66776;-76
2024/02/09 09:40:53;;;;;;;38.40;34.20;;;;;;;6.88;100.00;97032.23;109398;1252;58965;-77
2024/02/09 09:43:21;;;;;;;38.70;33.20;;;;;;;6.97;100.00;97032.71;109363;1253;65277;-77
2024/02/09 09:45:56;;;;;;;40.60;36.10;;;;;;;7.08;100.00;97025.82;109374;1253;58987;-77
2024/02/09 09:48:24;;;;;;;37.00;32.20;;;;;;;7.23;100.00;97026.63;109402;1253;58977;-77
2024/02/09 09:50:52;;;;;;;39.20;33.20;;;;;;;7.39;100.00;97021.58;109410;1252;67070;-77
2024/02/09 09:53:39;;;;;;;39.40;34.50;;;;;;;7.52;100.00;97024.88;109434;1252;60254;-77
2024/02/09 09:56:07;;;;;;;39.70;31.90;;;;;;;7.62;100.00;97024.34;109385;1252;65045;-77
2024/02/09 09:58:37;;;;;;;38.40;32.20;;;;;;;7.69;100.00;97017.06;109364;1252;58938;-76
2024/02/09 10:01:09;;;;;;;35.10;31.30;;;;;;;7.81;100.00;97013.00;109377;1252;60586;-76
2024/02/09 10:03:38;;;;;;;35.10;30.90;;;;;;;7.97;100.00;97012.15;109408;1252;67079;-76
2024/02/09 10:06:05;;;;;;;37.50;31.00;;;;;;;8.09;100.00;97008.59;109415;1252;61108;-77
2024/02/09 10:08:35;;;;;;;36.50;30.70;;;;;;;8.25;100.00;97006.41;109374;1252;64549;-77
2024/02/09 10:11:02;;;;;;;;;;;;;;;8.46;100.00;96999.79;109405;1252;58945;-77
2024/02/09 10:13:29;;;;;;;52.80;47.00;;;;;;;8.63;100.00;96995.64;109380;1252;59027;-77
2024/02/09 10:15:57;;;;;;;45.00;39.50;;;;;;;8.76;100.00;96992.36;109357;1252;66176;-77
2024/02/09 10:18:25;;;;;;;43.20;36.60;;;;;;;8.83;100.00;96991.53;109438;1252;61641;-77
2024/02/09 10:20:52;;;;;;;43.30;35.80;;;;;;;8.90;100.00;96995.62;109380;1252;65282;-77
2024/02/09 10:23:19;;;;;;;51.30;45.70;;;;;;;8.96;100.00;96993.98;109347;1252;59359;-76
2024/02/09 10:25:47;;;;;;;41.10;36.70;;;;;;;9.08;100.00;96988.70;108985;1252;59030;-77
2024/02/09 10:28:14;;;;;;;44.00;37.20;;;;;;;9.19;100.00;96987.27;109362;1252;66025;-77
2024/02/09 10:30:41;;;;;;;39.00;34.70;;;;;;;9.30;100.00;96981.14;109179;1252;60885;-77
2024/02/09 10:33:10;;;;;;;39.00;34.80;;;;;;;9.38;100.00;96977.50;109398;1252;64089;-76
2024/02/09 10:35:37;;;;;;;41.40;37.00;;;;;;;9.43;100.00;96976.15;109337;1252;59020;-76
2024/02/09 10:38:04;;;;;;;40.30;34.90;;;;;;;9.54;100.00;96966.57;109389;1252;58928;-77
2024/02/09 10:40:32;;;;;;;37.20;33.30;;;;;;;9.70;100.00;96957.29;109355;1252;65946;-76
2024/02/09 10:43:02;;;;;;;38.10;32.80;;;;;;;9.85;100.00;96953.02;109142;1254;62181;-76
2024/02/09 10:45:29;;;;;;;40.10;32.40;;;;;;;10.00;100.00;96949.26;109387;1252;64251;-75
2024/02/09 10:47:56;;;;;;;35.80;31.90;;;;;;;10.17;100.00;96942.42;109095;1252;59513;-76
2024/02/09 10:50:25;;;;;;;37.40;32.50;;;;;;;10.24;100.00;96941.20;109432;1252;59053;-76
2024/02/09 10:52:53;;;;;;;38.40;33.30;;;;;;;10.30;100.00;96936.19;109413;1252;67185;-77
2024/02/09 10:55:22;;;;;;;40.30;34.20;;;;;;;10.31;100.00;96932.55;109375;1252;61189;-76
2024/02/09 10:57:50;;;;;;;36.90;32.50;;;;;;;10.32;100.00;96925.04;109409;1252;64048;-76
2024/02/09 11:00:17;;;;;;;41.20;36.90;;;;;;;10.41;100.00;96921.65;109189;1256;59094;-77
2024/02/09 11:02:44;;;;;;;43.70;38.70;;;;;;;10.53;100.00;96918.33;109401;1252;58966;-76
2024/02/09 11:05:14;;;;;;;43.00;35.50;;;;;;;10.64;100.00;96917.95;109449;1252;65925;-75
2024/02/09 11:07:45;;;;;;;39.50;34.10;;;;;;;10.74;100.00;96919.38;109414;1252;61243;-76
2024/02/09 11:10:19;;;;;;;36.50;32.20;;;;;;;10.88;100.00;96914.42;109367;1252;64027;-76
2024/02/09 11:12:58;;;;;;;38.80;32.80;;;;;;;11.00;100.00;96910.69;109354;1253;59006;-76
2024/02/09 11:15:33;;;;;;;38.00;33.10;;;;;;;11.09;100.00;96908.19;109134;1252;59002;-77
2024/02/09 11:18:00;;;;;;;42.50;35.70;;;;;;;11.16;100.00;96905.66;109410;1252;65947;-75
2024/02/09 11:20:27;;;;;;;34.10;30.40;;;;;;;11.25;100.00;96899.46;109447;1252;60104;-78
2024/02/09 11:23:00;;;;;;;44.60;37.30;;;;;;;11.27;100.00;96898.33;109371;1252;65102;-76
2024/02/09 11:25:31;;;;;;;47.40;37.30;;;;;;;11.33;100.00;96891.73;109392;1252;59073;-78
2024/02/09 11:28:06;;;;;;;36.50;31.70;;;;;;;11.38;100.00;96887.73;109371;1252;59374;-77
2024/02/09 11:30:32;;;;;;;39.10;31.30;;;;;;;11.50;100.00;96889.06;109294;1252;67066;-76
2024/02/09 11:32:59;;;;;;;34.80;30.00;;;;;;;11.60;100.00;96890.14;109434;1252;60204;-76
2024/02/09 11:35:29;;;;;;;35.70;29.10;;;;;;;11.67;100.00;96888.69;109406;1252;65075;-77
2024/02/09 11:37:57;;;;;;;39.10;30.10;;;;;;;11.72;100.00;96889.09;109322;1252;142467;-75
2024/02/09 11:40:24;;;;;;;34.90;30.40;;;;;;;11.75;100.00;96882.93;109389;1252;59027;-76
2024/02/09 11:42:50;;;;;;;34.70;29.30;;;;;;;11.76;100.00;96885.06;109434;1252;67008;-78
2024/02/09 11:45:17;;;;;;;34.10;29.20;;;;;;;11.77;100.00;96880.46;109448;1252;60184;-76
2024/02/09 11:47:44;;;;;;;36.30;29.20;;;;;;;11.80;100.00;96878.94;109373;1252;65231;-76
2024/02/09 11:50:22;;;;;;;34.10;30.30;;;;;;;11.79;100.00;96876.04;109408;1252;59065;-76
2024/02/09 11:52:50;;;;;;;48.40;39.60;;;;;;;11.81;100.00;96875.48;109378;1252;58903;-77
2024/02/09 11:55:17;;;;;;;55.10;45.00;;;;;;;11.84;100.00;96875.44;109387;1252;67116;-76
2024/02/09 11:57:44;;;;;;;40.20;34.50;;;;;;;11.88;100.00;96877.81;109416;1252;60123;-77
2024/02/09 12:00:13;;;;;;;37.00;33.10;;;;;;;11.92;100.00;96875.63;109448;1252;64042;-76
2024/02/09 12:02:39;;;;;;;37.00;32.60;;;;;;;11.96;100.00;96875.70;109412;1252;58997;-76
2024/02/09 12:05:07;;;;;;;34.00;30.40;;;;;;;11.97;100.00;96879.01;109391;1255;59040;-76
2024/02/09 12:07:34;;;;;;;36.70;31.40;;;;;;;11.98;100.00;96879.02;109399;1252;66017;-76
2024/02/09 12:10:00;;;;;;;38.30;32.00;;;;;;;11.95;100.00;96881.70;109411;1252;60707;-76
2024/02/09 12:12:27;;;;;;;36.80;31.90;;;;;;;11.94;100.00;96883.37;109401;1252;64035;-76
2024/02/09 12:14:54;;;;;;;33.40;29.60;;;;;;;12.00;100.00;96885.09;109428;1252;59034;-76
2024/02/09 12:17:21;;;;;;;35.90;30.10;;;;;;;12.05;100.00;96877.90;109395;1252;58849;-75
2024/02/09 12:19:47;;;;;;;34.90;31.00;;;;;;;12.08;100.00;96882.74;109402;1252;66005;-76
2024/02/09 12:22:15;;;;;;;34.90;31.10;;;;;;;12.12;100.00;96889.85;109404;1252;61066;-73
2024/02/09 12:24:43;;;;;;;34.90;30.80;;;;;;;12.10;100.00;96890.98;109347;1252;64025;-73
2024/02/09 12:27:17;;;;;;;37.80;30.80;;;;;;;12.07;100.00;96895.36;109397;1252;59406;-74
2024/02/09 12:29:44;;;;;;;36.00;30.70;;;;;;;12.07;100.00;96896.77;109411;1252;58991;-72
2024/02/09 12:32:12;;;;;;;38.20;30.80;;;;;;;12.03;100.00;96890.23;109427;1252;67129;-73
2024/02/09 12:34:47;;;;;;;34.90;29.60;;;;;;;11.96;100.00;96887.08;109422;1252;61324;-73
2024/02/09 12:37:15;;;;;;;40.30;32.40;;;;;;;11.91;100.00;96889.11;109359;1252;64970;-73
2024/02/09 12:39:47;;;;;;;41.10;33.20;;;;;;;11.87;100.00;96891.76;109383;1252;59008;-73
2024/02/09 12:42:14;;;;;;;36.50;32.60;;;;;;;11.83;100.00;96891.59;109431;1252;58999;-74
2024/02/09 12:44:44;;;;;;;38.10;33.10;;;;;;;11.84;100.00;96886.69;109401;1252;66968;-73
2024/02/09 12:47:11;;;;;;;35.50;31.20;;;;;;;11.91;100.00;96884.89;109406;1252;60237;-74
2024/02/09 12:49:37;;;;;;;39.90;32.50;;;;;;;11.97;100.00;96886.92;109378;1252;63955;-74
2024/02/09 12:52:08;;;;;;;41.60;32.00;;;;;;;12.02;100.00;96887.10;109391;1253;58951;-73
2024/02/09 12:54:35;;;;;;;38.80;32.60;;;;;;;12.02;100.00;96885.87;109394;1252;59106;-74
2024/02/09 12:57:02;;;;;;;36.50;32.60;;;;;;;12.00;100.00;96890.05;109419;1252;66979;-74
2024/02/09 12:59:29;;;;;;;35.40;31.40;;;;;;;11.97;100.00;96891.27;109393;1252;60202;-71